Time;durP1;ratioP1;P1;durP2;ratioP2;P2;SDS_P1;SDS_P2;PMS_P1;PMS_P2;Temp;Humidity;BMP_temperature;BMP_pressure;BME280_temperature;BME280_humidity;BME280_pressure;Samples;Min_cycle;Max_cycle;Signal;HPM_P1;HPM_P2
2022/01/22 00:01:03;;;;;;;16.58;6.00;;;;;;;5.17;68.55;103197.06;5034019;28;20059;-59
2022/01/22 00:03:32;;;;;;;16.33;6.65;;;;;;;5.46;68.27;103198.34;5031832;28;20053;-62
2022/01/22 00:06:00;;;;;;;19.10;6.10;;;;;;;5.47;68.29;103200.03;5033719;28;20049;-58
2022/01/22 00:08:28;;;;;;;11.80;5.53;;;;;;;5.39;67.95;103203.03;5014249;28;20053;-57
2022/01/22 00:10:55;;;;;;;14.23;6.28;;;;;;;5.11;68.67;103197.91;5028762;28;20049;-62
2022/01/22 00:16:09;;;;;;;17.80;6.82;;;;;;;5.56;68.09;103194.09;5030091;28;20465;-57
2022/01/22 00:18:37;;;;;;;14.05;6.40;;;;;;;5.48;67.70;103193.50;5029405;28;20053;-59
2022/01/22 00:21:04;;;;;;;14.05;6.38;;;;;;;5.12;69.26;103196.03;5033758;28;20049;-60
2022/01/22 00:23:32;;;;;;;14.00;6.22;;;;;;;5.29;69.40;103180.78;5029241;28;20058;-56
2022/01/22 00:25:59;;;;;;;13.52;6.25;;;;;;;5.33;68.75;103191.09;5033992;28;20049;-59
2022/01/22 00:28:26;;;;;;;12.18;5.47;;;;;;;5.31;68.71;103179.53;5034296;28;20049;-58
2022/01/22 00:30:54;;;;;;;13.18;5.97;;;;;;;5.23;69.08;103177.03;5034600;28;20049;-56
2022/01/22 00:33:22;;;;;;;17.75;5.88;;;;;;;5.20;69.60;103176.63;5034263;28;20064;-56
2022/01/22 00:35:50;;;;;;;13.30;4.97;;;;;;;5.32;69.27;103189.41;5012864;28;20057;-57
2022/01/22 00:38:17;;;;;;;19.33;6.70;;;;;;;5.42;68.83;103178.00;5029449;28;20049;-57
2022/01/22 00:40:50;;;;;;;12.90;5.70;;;;;;;5.46;69.28;103171.03;5016498;28;20062;-59
2022/01/22 00:43:18;;;;;;;18.80;5.85;;;;;;;5.69;68.25;103168.56;5033180;28;20049;-56
2022/01/22 00:45:46;;;;;;;15.80;5.20;;;;;;;5.66;68.18;103169.84;5013623;28;20057;-57
2022/01/22 00:48:13;;;;;;;14.18;5.13;;;;;;;5.61;68.70;103169.66;5033080;28;20041;-52
2022/01/22 00:50:41;;;;;;;13.70;5.38;;;;;;;5.63;68.46;103177.66;5031886;28;20068;-59
2022/01/22 00:53:08;;;;;;;15.65;5.50;;;;;;;5.57;68.87;103181.25;5033098;28;20392;-57
2022/01/22 00:55:35;;;;;;;11.57;5.18;;;;;;;5.58;68.49;103175.56;5033075;28;20049;-57
2022/01/22 00:58:03;;;;;;;15.23;5.15;;;;;;;5.23;69.82;103177.03;5030336;28;20041;-56
2022/01/22 01:00:30;;;;;;;13.43;5.13;;;;;;;5.57;69.28;103173.91;5032343;28;20507;-56
2022/01/22 01:02:57;;;;;;;13.90;4.63;;;;;;;5.37;69.32;103181.38;5026849;28;20072;-58
2022/01/22 01:05:25;;;;;;;12.70;5.97;;;;;;;5.48;69.75;103177.09;5028151;28;20531;-57
2022/01/22 01:07:52;;;;;;;12.00;4.85;;;;;;;5.80;68.59;103176.06;5033217;28;20056;-56
2022/01/22 01:10:20;;;;;;;10.90;4.90;;;;;;;5.65;68.77;103175.50;5032695;28;20515;-54
2022/01/22 01:12:51;;;;;;;17.20;5.65;;;;;;;5.93;68.32;103164.22;5032544;28;20080;-56
2022/01/22 01:15:42;;;;;;;14.68;5.05;;;;;;;5.99;68.07;103160.56;5032292;28;20528;-57
2022/01/22 01:34:30;;;;;;;12.65;4.75;;;;;;;5.49;69.59;103157.75;5009629;28;20054;-55
2022/01/22 01:36:57;;;;;;;12.20;4.85;;;;;;;5.33;69.60;103168.38;5037927;28;20408;-55
2022/01/22 01:39:30;;;;;;;9.52;4.18;;;;;;;5.49;69.76;103155.03;5033529;28;20041;-52
2022/01/22 01:42:23;;;;;;;12.63;5.18;;;;;;;5.37;69.23;103156.78;5031013;28;20053;-56
2022/01/22 01:44:48;;;;;;;;;;;;;;;5.30;70.10;103161.44;5032986;28;20045;-56
2022/01/22 01:47:33;;;;;;;13.27;4.10;;;;;;;5.21;70.05;103162.75;5042315;28;19935;-56
2022/01/22 01:50:00;;;;;;;12.82;4.95;;;;;;;5.24;69.81;103159.59;5055703;28;20416;-57
2022/01/22 01:55:17;;;;;;;12.65;4.90;;;;;;;5.53;69.55;103158.16;5016853;28;20046;-55
2022/01/22 01:57:44;;;;;;;12.48;4.70;;;;;;;5.65;68.96;103159.13;5019273;28;20064;-56
2022/01/22 02:00:18;;;;;;;10.65;4.38;;;;;;;5.80;69.08;103159.66;5003237;28;20053;-57
2022/01/22 02:02:51;;;;;;;11.90;4.72;;;;;;;5.61;69.10;103161.44;5030784;28;20040;-58
2022/01/22 02:05:22;;;;;;;12.07;4.70;;;;;;;5.58;69.27;103155.59;5047739;28;20065;-58
2022/01/22 02:07:55;;;;;;;9.63;4.63;;;;;;;5.52;69.00;103157.34;5035874;28;20524;-53
2022/01/22 02:10:31;;;;;;;10.57;4.88;;;;;;;5.56;69.35;103164.00;5024244;28;20056;-55
2022/01/22 02:24:23;;;;;;;8.48;4.40;;;;;;;5.50;69.55;103145.78;5030776;28;20049;-56
2022/01/22 02:26:51;;;;;;;11.07;4.68;;;;;;;5.61;69.32;103142.31;5035940;28;20050;-57
2022/01/22 02:29:28;;;;;;;11.05;4.78;;;;;;;5.40;69.62;103144.59;5021320;28;20049;-57
2022/01/22 02:35:17;;;;;;;16.95;4.75;;;;;;;5.69;69.00;103152.16;5044778;28;20118;-57
2022/01/22 02:37:51;;;;;;;11.48;5.07;;;;;;;5.63;68.79;103156.59;5038078;28;20496;-57
2022/01/22 02:40:29;;;;;;;9.48;4.57;;;;;;;5.31;70.14;103154.94;5035241;28;20052;-57
2022/01/22 02:42:59;;;;;;;12.20;5.03;;;;;;;5.18;70.85;103151.44;5035782;28;20526;-57
2022/01/22 02:45:26;;;;;;;12.07;5.20;;;;;;;5.32;70.46;103153.88;5036506;28;20033;-58
2022/01/22 02:47:54;;;;;;;10.52;4.88;;;;;;;5.34;70.31;103140.00;5027249;28;20049;-59
2022/01/22 02:50:22;;;;;;;11.05;4.93;;;;;;;5.25;70.54;103147.63;5019919;28;20056;-54
2022/01/22 02:52:49;;;;;;;13.40;5.03;;;;;;;5.16;71.07;103145.38;5035037;28;20049;-53
2022/01/22 02:55:17;;;;;;;10.63;4.88;;;;;;;5.48;69.99;103138.84;5035558;28;20051;-55
2022/01/22 02:57:46;;;;;;;13.02;5.22;;;;;;;5.14;71.26;103140.13;5034061;28;20052;-55
2022/01/22 03:00:18;;;;;;;19.23;5.30;;;;;;;5.12;71.28;103139.50;5035047;28;20068;-55
2022/01/22 03:02:48;;;;;;;15.38;5.72;;;;;;;5.20;71.29;103143.84;5051527;28;20041;-56
2022/01/22 03:05:16;;;;;;;14.82;5.85;;;;;;;5.12;71.36;103144.13;5033156;28;20053;-58
2022/01/22 03:07:49;;;;;;;13.27;5.10;;;;;;;5.07;71.44;103141.22;5035656;28;20053;-58
2022/01/22 03:10:20;;;;;;;11.93;5.20;;;;;;;5.01;72.28;103136.59;5034358;28;20495;-56
2022/01/22 03:13:12;;;;;;;13.70;5.63;;;;;;;5.06;71.89;103140.38;5034583;28;20053;-58
2022/01/22 03:18:13;;;;;;;18.10;6.40;;;;;;;5.09;72.23;103130.91;5023744;28;20520;-55
2022/01/22 03:21:06;;;;;;;14.05;5.97;;;;;;;5.36;71.58;103125.06;5038077;28;20072;-58
2022/01/22 03:29:10;;;;;;;17.55;6.78;;;;;;;5.32;71.17;103145.69;5042125;28;20050;-56
2022/01/22 03:31:40;;;;;;;15.48;5.55;;;;;;;5.26;72.04;103140.25;5038317;28;20514;-55
2022/01/22 03:34:08;;;;;;;18.17;5.63;;;;;;;5.39;70.95;103132.81;5037386;28;20056;-58
2022/01/22 03:36:36;;;;;;;15.88;6.05;;;;;;;5.23;71.70;103130.59;5035592;28;20049;-52
2022/01/22 03:39:08;;;;;;;14.40;5.82;;;;;;;5.27;71.82;103139.19;5034748;28;20428;-55
2022/01/22 03:41:36;;;;;;;13.23;6.22;;;;;;;5.34;71.24;103138.09;5034301;28;20065;-55
2022/01/22 03:44:06;;;;;;;13.90;6.05;;;;;;;5.15;72.21;103146.41;5033698;28;20049;-59
2022/01/22 03:46:41;;;;;;;15.73;5.85;;;;;;;5.23;71.95;103147.00;5023440;28;20046;-57
2022/01/22 03:49:10;;;;;;;11.88;5.55;;;;;;;5.38;71.52;103149.44;5061603;28;20056;-57
2022/01/22 03:51:38;;;;;;;14.25;5.20;;;;;;;5.57;71.67;103145.72;5041868;28;20052;-56
2022/01/22 03:54:06;;;;;;;16.52;5.90;;;;;;;5.20;72.10;103143.84;5031877;28;20068;-55
2022/01/22 03:56:33;;;;;;;14.77;6.40;;;;;;;5.32;72.09;103147.56;5014273;28;20045;-55
2022/01/22 03:59:13;;;;;;;17.00;6.93;;;;;;;5.27;72.63;103150.97;5045480;28;20060;-59
2022/01/22 04:04:44;;;;;;;14.95;5.80;;;;;;;5.21;72.71;103143.63;5033534;28;20538;-54
2022/01/22 04:09:44;;;;;;;11.45;5.50;;;;;;;5.54;71.55;103140.72;5034420;28;20160;-56
2022/01/22 04:12:16;;;;;;;11.68;5.63;;;;;;;5.29;72.90;103150.75;5027989;28;20689;-56
2022/01/22 04:14:53;;;;;;;15.73;6.07;;;;;;;5.57;72.01;103146.56;5031799;28;20045;-53
2022/01/22 04:25:24;;;;;;;14.10;6.47;;;;;;;5.23;73.27;103124.31;5032911;28;20064;-62
2022/01/22 04:27:53;;;;;;;16.27;6.35;;;;;;;5.41;71.81;103124.38;5034741;28;20049;-61
2022/01/22 04:30:21;;;;;;;12.73;6.43;;;;;;;5.42;71.99;103137.00;5047358;28;20049;-62
2022/01/22 04:32:49;;;;;;;14.45;7.00;;;;;;;5.39;72.29;103130.06;5017033;28;20056;-61
2022/01/22 04:35:18;;;;;;;14.57;6.43;;;;;;;5.48;72.32;103125.19;5034112;28;20424;-61
2022/01/22 04:37:46;;;;;;;13.57;6.53;;;;;;;5.28;72.42;103128.03;5016188;28;20392;-61
2022/01/22 04:40:13;;;;;;;12.00;6.88;;;;;;;5.15;73.20;103133.59;5034070;28;20489;-61
2022/01/22 04:42:42;;;;;;;14.63;6.70;;;;;;;5.41;72.95;103121.66;5033303;28;20064;-61
2022/01/22 04:45:24;;;;;;;14.63;6.85;;;;;;;5.23;73.00;103129.78;5048550;28;20044;-62
2022/01/22 04:55:55;;;;;;;;;;;;;;;5.42;72.90;103140.56;5035230;28;20533;-62
2022/01/22 04:58:22;;;;;;;16.67;7.50;;;;;;;5.31;73.08;103138.53;5032016;28;20385;-62
2022/01/22 05:00:50;;;;;;;13.70;7.95;;;;;;;5.19;73.82;103142.19;5034472;28;20049;-62
2022/01/22 05:03:47;;;;;;;18.67;8.63;;;;;;;5.30;73.59;103141.50;5018790;28;20058;-63
2022/01/22 05:06:37;;;;;;;20.02;8.57;;;;;;;5.41;72.87;103140.78;5011558;28;20054;-62
2022/01/22 05:09:21;;;;;;;18.45;9.30;;;;;;;5.21;73.46;103145.53;5028627;28;20056;-63
2022/01/22 05:11:54;;;;;;;16.70;8.82;;;;;;;5.30;73.78;103136.84;5016609;28;20053;-62
2022/01/22 05:14:23;;;;;;;18.95;9.18;;;;;;;5.46;72.79;103136.34;5033549;28;20045;-62
2022/01/22 05:16:55;;;;;;;18.92;8.77;;;;;;;5.78;72.23;103137.16;5027694;28;20052;-62
2022/01/22 05:20:09;;;;;;;;;;;;;;;5.50;73.05;103140.31;5032413;28;20049;-61
2022/01/22 05:24:45;;;;;;;22.60;10.63;;;;;;;5.37;73.09;103134.09;5041522;28;20053;-61
2022/01/22 05:30:01;;;;;;;19.15;11.57;;;;;;;5.59;72.26;103141.72;5034838;28;20129;-62
2022/01/22 05:33:14;;;;;;;19.33;11.48;;;;;;;5.23;72.85;103151.63;5031120;28;20060;-62
2022/01/22 05:38:36;;;;;;;17.25;11.80;;;;;;;5.36;73.27;103140.59;5036106;28;20053;-62
2022/01/22 05:41:04;;;;;;;22.42;12.18;;;;;;;5.37;73.29;103148.59;5014554;28;20496;-62
2022/01/22 05:43:31;;;;;;;21.60;11.40;;;;;;;5.55;72.25;103145.09;5044120;28;20052;-62
2022/01/22 05:45:59;;;;;;;22.08;12.68;;;;;;;5.64;72.27;103143.78;5056905;28;20052;-61
2022/01/22 05:48:26;;;;;;;21.92;12.68;;;;;;;5.84;71.61;103152.69;5038903;28;20060;-61
2022/01/22 05:50:58;;;;;;;20.23;13.18;;;;;;;5.51;71.77;103144.72;5041347;28;20456;-61
2022/01/22 06:01:23;;;;;;;23.55;13.60;;;;;;;5.52;71.60;103145.56;5050350;28;20044;-62
2022/01/22 06:04:01;;;;;;;20.10;13.20;;;;;;;5.58;71.05;103155.59;5039524;28;20076;-62
2022/01/22 06:06:29;;;;;;;22.48;13.60;;;;;;;5.58;71.59;103152.84;5033638;28;20050;-63
2022/01/22 06:09:01;;;;;;;24.35;14.13;;;;;;;5.64;71.29;103157.44;5041215;28;20049;-62
2022/01/22 06:11:36;;;;;;;20.85;13.75;;;;;;;5.92;70.24;103166.09;5040308;28;20539;-63
2022/01/22 06:14:05;;;;;;;22.88;13.05;;;;;;;5.26;71.93;103159.38;5027164;28;20045;-62
2022/01/22 06:16:41;;;;;;;19.92;13.65;;;;;;;5.26;72.46;103162.13;5034407;28;20052;-63
2022/01/22 06:19:23;;;;;;;25.30;15.23;;;;;;;5.37;72.04;103167.72;5031076;28;20133;-63
2022/01/22 06:21:51;;;;;;;25.40;14.77;;;;;;;5.36;72.02;103157.84;5045510;28;20045;-62
2022/01/22 06:24:22;;;;;;;27.30;13.98;;;;;;;5.35;72.29;103150.69;5030599;28;20046;-62
2022/01/22 06:26:51;;;;;;;20.67;15.00;;;;;;;5.31;72.61;103160.41;5035652;28;20060;-62
2022/01/22 06:29:19;;;;;;;22.55;14.43;;;;;;;5.39;72.65;103153.81;5014978;28;20049;-62
2022/01/22 06:31:47;;;;;;;21.70;14.02;;;;;;;5.66;71.83;103163.53;5029966;28;20386;-62
2022/01/22 06:34:16;;;;;;;25.02;15.70;;;;;;;5.91;70.92;103158.13;5034750;28;20060;-61
2022/01/22 06:36:44;;;;;;;24.98;14.32;;;;;;;6.08;70.45;103151.03;5042575;28;20052;-63
2022/01/22 06:39:14;;;;;;;27.67;15.18;;;;;;;6.22;69.38;103152.56;5015377;28;20053;-62
2022/01/22 06:42:00;;;;;;;24.27;14.27;;;;;;;5.58;70.55;103152.84;5037340;28;20045;-63
2022/01/22 06:44:45;;;;;;;25.60;14.65;;;;;;;5.75;70.79;103157.56;5036333;28;20046;-57
2022/01/22 06:47:32;;;;;;;24.58;14.95;;;;;;;5.73;71.13;103162.44;5048243;28;20060;-57
2022/01/22 06:50:20;;;;;;;21.95;13.55;;;;;;;5.78;70.59;103158.19;5030098;28;20041;-55
2022/01/22 06:52:55;;;;;;;21.10;14.07;;;;;;;6.13;70.30;103165.72;5033921;28;20056;-59
2022/01/22 06:58:10;;;;;;;25.17;14.73;;;;;;;5.64;71.62;103168.38;5014950;28;20467;-57
2022/01/22 07:00:42;;;;;;;23.75;14.95;;;;;;;5.74;71.35;103166.84;5032800;28;20049;-57
2022/01/22 07:03:30;;;;;;;24.05;14.95;;;;;;;5.73;71.15;103167.06;5033406;28;20046;-58
2022/01/22 07:06:12;;;;;;;24.83;14.65;;;;;;;5.80;70.63;103175.22;5033959;28;20068;-55
2022/01/22 07:08:39;;;;;;;19.02;13.27;;;;;;;5.58;70.41;103170.09;5018246;28;20449;-56
2022/01/22 07:11:09;;;;;;;21.30;12.88;;;;;;;5.52;70.93;103175.63;5027508;28;20062;-57
2022/01/22 07:13:41;;;;;;;24.73;14.68;;;;;;;5.53;71.11;103182.75;5018622;28;20064;-58
2022/01/22 07:16:09;;;;;;;22.02;14.90;;;;;;;5.55;71.15;103173.28;5034458;28;20053;-56
2022/01/22 07:18:37;;;;;;;24.17;14.65;;;;;;;5.65;71.22;103175.50;5018651;28;20045;-56
2022/01/22 07:21:14;;;;;;;23.83;14.70;;;;;;;5.22;73.07;103178.09;5011179;28;20056;-58
2022/01/22 07:24:07;;;;;;;25.02;15.30;;;;;;;5.25;73.58;103174.94;5032834;28;20429;-62
2022/01/22 07:26:31;;;;;;;25.30;14.05;;;;;;;5.38;72.41;103172.16;5033662;28;20049;-57
2022/01/22 07:29:12;;;;;;;;;;;;;;;5.41;72.42;103168.97;5033755;28;20493;-57
2022/01/22 07:31:40;;;;;;;21.58;14.48;;;;;;;5.49;72.33;103182.34;5034785;28;19921;-57
2022/01/22 07:34:09;;;;;;;22.52;14.38;;;;;;;5.53;71.97;103169.94;5022981;28;20052;-56
2022/01/22 07:36:37;;;;;;;30.17;15.15;;;;;;;5.51;72.32;103180.25;5034227;28;20061;-56
2022/01/22 07:39:04;;;;;;;26.70;16.75;;;;;;;5.51;72.14;103185.72;5028689;28;20049;-56
2022/01/22 07:41:37;;;;;;;24.60;14.50;;;;;;;5.67;71.26;103182.47;5033248;28;20049;-62
2022/01/22 07:44:30;;;;;;;25.67;14.90;;;;;;;5.74;71.11;103182.41;5006960;28;20065;-56
2022/01/22 07:46:58;;;;;;;22.65;15.20;;;;;;;5.70;71.67;103178.47;5025658;28;20054;-57
2022/01/22 07:49:26;;;;;;;22.42;15.52;;;;;;;5.90;70.86;103194.72;5048879;28;20060;-57
2022/01/22 07:51:59;;;;;;;24.88;15.63;;;;;;;5.36;72.24;103189.81;5033037;28;20496;-58
2022/01/22 07:54:27;;;;;;;26.42;15.05;;;;;;;5.48;72.49;103188.88;5015084;28;20056;-60
2022/01/22 07:56:57;;;;;;;30.70;16.35;;;;;;;5.51;71.93;103195.78;5028657;28;20300;-59
2022/01/22 07:59:25;;;;;;;28.30;16.23;;;;;;;5.41;72.51;103195.44;5047688;28;20064;-56
2022/01/22 08:01:53;;;;;;;23.85;15.25;;;;;;;5.56;72.37;103190.53;5033411;28;20396;-57
2022/01/22 08:04:24;;;;;;;25.40;16.20;;;;;;;5.41;72.98;103199.03;5036702;28;20064;-57
2022/01/22 08:06:57;;;;;;;28.30;16.05;;;;;;;5.38;73.13;103198.63;5028222;28;20057;-56
2022/01/22 08:09:45;;;;;;;25.23;16.52;;;;;;;5.38;73.12;103202.19;5031394;28;20397;-54
2022/01/22 08:12:20;;;;;;;24.55;16.15;;;;;;;5.73;72.16;103202.63;5031195;28;20045;-56
2022/01/22 08:14:50;;;;;;;25.40;15.57;;;;;;;5.71;72.06;103196.53;5036171;28;20060;-54
2022/01/22 08:17:18;;;;;;;27.90;15.43;;;;;;;5.77;71.07;103205.75;5033309;28;20049;-57
2022/01/22 08:19:46;;;;;;;25.77;15.77;;;;;;;5.70;71.50;103203.88;5043181;28;20123;-54
2022/01/22 08:22:34;;;;;;;24.23;14.23;;;;;;;5.82;70.88;103203.19;5010036;28;20409;-56
2022/01/22 08:25:20;;;;;;;26.33;15.13;;;;;;;5.75;71.06;103214.19;5034438;28;20041;-58
2022/01/22 08:30:40;;;;;;;23.77;14.77;;;;;;;6.07;70.19;103213.09;5033254;28;20065;-55
2022/01/22 08:35:51;;;;;;;24.27;15.48;;;;;;;5.99;70.66;103213.41;5033309;28;20056;-59
2022/01/22 08:36:07;;;;;;;28.40;15.60;;;;;;;5.89;70.78;103220.41;5012213;28;20057;-56
2022/01/22 08:38:35;;;;;;;23.77;15.82;;;;;;;5.82;71.17;103216.84;5036836;28;20048;-54
2022/01/22 08:41:04;;;;;;;26.10;16.20;;;;;;;5.97;70.69;103218.25;5032934;28;20500;-55
2022/01/22 08:43:33;;;;;;;23.48;16.13;;;;;;;5.88;71.26;103211.34;5032839;28;20045;-57
2022/01/22 08:46:09;;;;;;;28.08;16.77;;;;;;;5.89;71.13;103220.41;5032232;28;20045;-63
2022/01/22 08:48:37;;;;;;;27.63;16.95;;;;;;;6.28;70.10;103228.28;5017492;28;20420;-60
2022/01/22 08:51:15;;;;;;;28.15;16.10;;;;;;;6.02;70.19;103225.78;5001908;28;20053;-58
2022/01/22 08:53:58;;;;;;;26.88;17.02;;;;;;;5.90;70.88;103227.53;5032894;28;20064;-62
2022/01/22 08:56:48;;;;;;;28.40;16.55;;;;;;;5.76;71.43;103234.97;5000085;28;20394;-58
2022/01/22 08:59:24;;;;;;;25.23;15.52;;;;;;;5.66;71.13;103229.16;5031440;28;20063;-57
2022/01/22 09:01:57;;;;;;;25.10;16.27;;;;;;;5.64;71.66;103239.47;5014950;28;20045;-55
2022/01/22 09:04:58;;;;;;;24.67;15.38;;;;;;;5.63;71.89;103237.81;5010806;28;20057;-62
2022/01/22 09:07:49;;;;;;;25.60;15.85;;;;;;;5.98;71.41;103250.00;5017141;28;20513;-61
2022/01/22 09:10:32;;;;;;;25.13;15.65;;;;;;;6.03;69.85;103243.88;5027323;28;20053;-61
2022/01/22 09:13:25;;;;;;;28.65;16.65;;;;;;;5.67;71.10;103247.22;5019969;28;20064;-62
2022/01/22 09:16:04;;;;;;;27.23;16.60;;;;;;;5.81;71.05;103251.56;5031647;28;20049;-63
2022/01/22 09:18:32;;;;;;;27.92;15.82;;;;;;;6.06;70.05;103249.75;5024698;28;20404;-63
2022/01/22 09:23:29;;;;;;;25.85;15.75;;;;;;;6.38;69.55;103247.81;5032687;28;20049;-65
2022/01/22 09:25:58;;;;;;;23.42;15.27;;;;;;;5.55;70.95;103257.19;5031440;28;20049;-61
2022/01/22 09:28:26;;;;;;;22.20;14.45;;;;;;;5.63;70.74;103259.69;5028988;28;20057;-62
2022/01/22 09:30:58;;;;;;;24.15;15.45;;;;;;;5.75;70.80;103255.19;5034599;28;20053;-64
2022/01/22 09:33:26;;;;;;;27.00;15.38;;;;;;;5.71;70.78;103263.00;5016312;28;20053;-63
2022/01/22 09:36:19;;;;;;;27.67;17.08;;;;;;;5.84;70.98;103275.75;5017597;28;20449;-62
2022/01/22 09:39:05;;;;;;;26.98;15.77;;;;;;;5.89;70.02;103269.66;5033909;28;20050;-63
2022/01/22 09:41:39;;;;;;;29.45;15.70;;;;;;;5.56;71.19;103267.06;5031372;28;20125;-65
2022/01/22 09:44:59;;;;;;;24.08;15.18;;;;;;;5.46;71.24;103277.63;5016331;28;20069;-62
2022/01/22 09:47:46;;;;;;;25.38;16.27;;;;;;;5.58;71.29;103267.66;5031522;28;20057;-61
2022/01/22 09:50:48;;;;;;;26.73;15.00;;;;;;;5.65;71.12;103269.31;4970737;28;20055;-60
2022/01/22 09:53:36;;;;;;;23.73;15.52;;;;;;;6.01;70.32;103276.09;5027205;28;20299;-61
2022/01/22 09:56:36;;;;;;;53.72;17.60;;;;;;;6.27;71.47;103264.94;5015439;28;20065;-60
2022/01/22 09:59:14;;;;;;;25.05;15.68;;;;;;;6.03;70.32;103271.22;5019822;28;20053;-62
2022/01/22 10:02:11;;;;;;;27.67;16.45;;;;;;;5.92;70.92;103272.78;5028663;28;20057;-64
2022/01/22 10:04:41;;;;;;;24.47;15.90;;;;;;;5.78;70.80;103276.63;5014984;28;20068;-58
2022/01/22 10:07:27;;;;;;;26.80;16.42;;;;;;;6.06;70.42;103276.25;5033783;28;20296;-62
2022/01/22 10:10:05;;;;;;;27.90;16.88;;;;;;;5.89;69.52;103272.38;5036684;28;20037;-66
2022/01/22 10:12:50;;;;;;;24.60;15.77;;;;;;;6.17;70.91;103273.63;5035567;28;20057;-69
2022/01/22 10:15:35;;;;;;;24.30;14.85;;;;;;;6.55;69.34;103281.75;5035734;28;20060;-64
2022/01/22 10:18:18;;;;;;;28.80;18.73;;;;;;;6.25;69.53;103278.00;5039765;28;20054;-68
2022/01/22 10:20:45;;;;;;;25.33;15.48;;;;;;;5.99;69.54;103281.78;5036713;28;20049;-63
2022/01/22 10:23:22;;;;;;;22.08;14.68;;;;;;;6.18;70.11;103285.44;5035587;28;20052;-63
2022/01/22 10:25:56;;;;;;;21.98;14.68;;;;;;;6.67;68.51;103283.53;5035071;28;20151;-59
2022/01/22 10:28:26;;;;;;;26.70;16.55;;;;;;;6.65;68.38;103287.56;5034620;28;20049;-60
2022/01/22 10:30:59;;;;;;;;;;;;;;;6.54;67.69;103282.81;5036682;28;20041;-61
2022/01/22 10:34:08;;;;;;;24.20;14.30;;;;;;;6.76;68.82;103287.66;5022077;28;19939;-59
2022/01/22 10:37:08;;;;;;;26.25;16.23;;;;;;;6.16;68.15;103293.88;4991496;28;20053;-60
2022/01/22 10:39:44;;;;;;;26.88;16.30;;;;;;;6.28;68.20;103292.09;5036249;28;20052;-57
2022/01/22 10:42:19;;;;;;;24.33;15.73;;;;;;;5.99;69.53;103294.63;5033688;28;20053;-64
2022/01/22 10:44:49;;;;;;;22.83;15.93;;;;;;;5.81;70.12;103294.47;5030867;28;20048;-58
2022/01/22 10:47:22;;;;;;;29.60;16.80;;;;;;;6.18;70.00;103288.16;5032387;28;20045;-62
2022/01/22 10:49:49;;;;;;;24.88;16.35;;;;;;;6.29;69.65;103287.47;5035039;28;20052;-54
2022/01/22 10:52:17;;;;;;;24.80;16.98;;;;;;;6.30;68.62;103284.50;5028952;28;20555;-58
2022/01/22 10:54:46;;;;;;;27.00;17.67;;;;;;;6.32;70.01;103282.38;5033359;28;20053;-61
2022/01/22 10:57:14;;;;;;;26.08;16.85;;;;;;;6.60;69.33;103274.56;5026930;28;20049;-58
2022/01/22 10:59:46;;;;;;;28.45;18.38;;;;;;;6.30;69.44;103278.19;5033765;28;20053;-58
2022/01/22 11:02:17;;;;;;;30.13;18.10;;;;;;;6.66;68.99;103267.31;5018720;28;20041;-58
2022/01/22 11:04:45;;;;;;;35.38;19.17;;;;;;;6.71;68.27;103275.72;5032537;28;20076;-58
2022/01/22 11:07:17;;;;;;;25.42;17.48;;;;;;;6.63;68.05;103273.25;5035363;28;20041;-55
2022/01/22 11:09:51;;;;;;;28.92;18.35;;;;;;;7.04;67.92;103273.47;5034490;28;20535;-56
2022/01/22 11:12:18;;;;;;;32.17;17.52;;;;;;;6.87;67.44;103266.88;5021143;28;20061;-58
2022/01/22 11:14:46;;;;;;;28.38;17.13;;;;;;;7.17;66.96;103273.31;5027039;28;20409;-54
2022/01/22 11:17:14;;;;;;;28.50;16.73;;;;;;;7.36;66.17;103271.38;5033900;28;20052;-57
2022/01/22 11:19:44;;;;;;;25.73;15.98;;;;;;;6.87;66.54;103269.63;5035062;28;20049;-57
2022/01/22 11:22:14;;;;;;;27.80;16.95;;;;;;;6.54;66.96;103267.22;5030946;28;20045;-57
2022/01/22 11:24:44;;;;;;;26.13;17.42;;;;;;;6.45;68.70;103262.28;5034348;28;20062;-56
2022/01/22 11:27:15;;;;;;;26.25;16.77;;;;;;;6.60;67.61;103266.34;5030771;28;20053;-57
2022/01/22 11:29:57;;;;;;;26.33;15.63;;;;;;;6.59;67.70;103261.91;5025345;28;20042;-54
2022/01/22 11:32:41;;;;;;;23.83;15.68;;;;;;;6.29;68.96;103260.09;5033562;28;20053;-57
2022/01/22 11:35:09;;;;;;;27.48;16.45;;;;;;;5.98;69.06;103263.66;5028022;28;20129;-58
2022/01/22 11:37:46;;;;;;;30.48;16.90;;;;;;;6.26;69.51;103255.06;5033739;28;20405;-59
2022/01/22 11:40:24;;;;;;;29.00;16.40;;;;;;;6.19;68.89;103257.84;5033643;28;20034;-60
2022/01/22 11:43:13;;;;;;;28.60;16.73;;;;;;;6.37;69.11;103257.06;5047099;28;20064;-58
2022/01/22 11:45:51;;;;;;;24.10;16.60;;;;;;;6.39;68.02;103258.53;5036221;28;20050;-60
2022/01/22 11:48:24;;;;;;;29.60;15.85;;;;;;;6.85;67.99;103247.94;5033646;28;20489;-59
2022/01/22 11:50:53;;;;;;;24.63;15.60;;;;;;;6.51;67.99;103254.00;5035263;28;20049;-60
2022/01/22 11:53:37;;;;;;;25.98;16.27;;;;;;;6.00;69.24;103247.88;5034658;28;20052;-59
2022/01/22 11:56:10;;;;;;;24.65;17.48;;;;;;;6.02;69.31;103248.50;5034297;28;20064;-59
2022/01/22 11:59:20;;;;;;;26.63;16.80;;;;;;;6.31;68.78;103247.84;5021798;28;20095;-58
2022/01/22 12:02:03;;;;;;;27.10;17.40;;;;;;;6.45;68.03;103243.13;5017817;28;20057;-57
2022/01/22 12:04:34;;;;;;;28.13;18.50;;;;;;;6.76;67.87;103238.34;5034245;28;20061;-58
2022/01/22 12:07:01;;;;;;;28.23;16.92;;;;;;;6.57;67.29;103239.38;5035031;28;20076;-58
2022/01/22 12:15:27;;;;;;;23.10;16.63;;;;;;;7.02;65.71;103225.44;5027958;28;20557;-58
2022/01/22 12:18:01;;;;;;;26.67;16.17;;;;;;;6.44;67.89;103228.56;5031757;28;20054;-59
2022/01/22 12:23:12;;;;;;;29.17;16.92;;;;;;;6.26;69.36;103228.53;5034976;28;20057;-58
2022/01/22 12:25:39;;;;;;;27.25;16.98;;;;;;;6.85;67.88;103226.03;5034818;28;20064;-58
2022/01/22 12:28:08;;;;;;;25.90;17.00;;;;;;;6.51;67.17;103229.34;5033455;28;20063;-58
2022/01/22 12:30:40;;;;;;;23.55;16.40;;;;;;;6.26;67.87;103223.03;5034819;28;20053;-57
2022/01/22 12:33:15;;;;;;;28.58;16.02;;;;;;;6.16;68.95;103217.25;5034923;28;20050;-58
2022/01/22 12:35:45;;;;;;;23.75;16.10;;;;;;;6.42;67.77;103225.22;5031619;28;20400;-58
2022/01/22 12:38:34;;;;;;;;;;;;;;;6.34;68.39;103221.94;5015987;28;20049;-59
2022/01/22 12:41:28;;;;;;;29.08;18.33;;;;;;;6.22;69.32;103212.78;5023628;28;19921;-56
2022/01/22 12:44:28;;;;;;;26.10;16.58;;;;;;;6.37;68.63;103208.63;5031985;28;20049;-59
2022/01/22 12:46:59;;;;;;;23.60;15.45;;;;;;;6.15;68.85;103201.91;5028844;28;20053;-60
2022/01/22 12:49:28;;;;;;;28.20;17.77;;;;;;;6.16;68.77;103200.81;5033629;28;20056;-60
2022/01/22 12:51:57;;;;;;;27.60;17.15;;;;;;;6.56;68.87;103195.81;5035000;28;20049;-58
2022/01/22 12:54:32;;;;;;;28.38;16.45;;;;;;;6.99;67.53;103195.75;5034550;28;20053;-58
2022/01/22 12:57:04;;;;;;;28.50;16.52;;;;;;;7.00;65.96;103183.72;5034782;28;20060;-61
2022/01/22 12:59:34;;;;;;;25.85;17.00;;;;;;;7.09;65.94;103182.34;5034451;28;20061;-57
2022/01/22 13:02:02;;;;;;;24.52;16.98;;;;;;;7.27;66.15;103182.31;5033456;28;20397;-58
2022/01/22 13:04:30;;;;;;;29.80;18.25;;;;;;;7.51;65.24;103184.94;5033006;28;20069;-57
2022/01/22 13:07:24;;;;;;;27.10;16.85;;;;;;;6.55;68.07;103188.66;4990046;28;20404;-61
2022/01/22 13:10:22;;;;;;;27.77;16.67;;;;;;;6.24;68.55;103181.38;5002169;28;20057;-56
2022/01/22 13:12:50;;;;;;;26.65;17.48;;;;;;;6.41;68.55;103181.66;5029344;28;20053;-62
2022/01/22 13:15:18;;;;;;;28.77;17.50;;;;;;;6.49;68.75;103179.47;5032811;28;20497;-61
2022/01/22 13:17:52;;;;;;;31.08;18.30;;;;;;;6.43;68.50;103172.13;5032778;28;20076;-59
2022/01/22 13:20:24;;;;;;;28.88;17.60;;;;;;;6.87;68.71;103175.69;5033189;28;20049;-62
2022/01/22 13:22:52;;;;;;;30.73;18.55;;;;;;;6.99;67.56;103174.66;5034546;28;20053;-58
2022/01/22 13:25:21;;;;;;;29.20;18.67;;;;;;;6.58;67.84;103180.84;5030889;28;20045;-63
2022/01/22 13:28:18;;;;;;;26.27;18.88;;;;;;;6.56;68.73;103182.97;5028621;28;20050;-63
2022/01/22 13:30:56;;;;;;;29.02;18.05;;;;;;;6.94;69.09;103173.69;5013415;28;20057;-61
2022/01/22 13:33:41;;;;;;;30.27;18.90;;;;;;;7.02;67.30;103167.88;5005047;28;20050;-61